createdAt,value
2022-09-12T00:02:44.505Z,99.6
2022-09-12T00:08:03.922Z,99.65
2022-09-12T00:13:23.252Z,99.62
2022-09-12T00:21:56.325Z,99.61
2022-09-12T00:24:01.693Z,99.88
2022-09-12T00:29:21.117Z,99.72
2022-09-12T00:34:40.595Z,99.77
2022-09-12T00:39:59.846Z,99.9
2022-09-12T00:45:18.886Z,99.99
2022-09-12T00:50:38.625Z,99.99
2022-09-12T00:55:58.146Z,99.99
2022-09-12T01:01:17.402Z,99.98
2022-09-12T01:06:36.457Z,99.98
2022-09-12T01:15:09.504Z,99.99
2022-09-12T01:17:14.911Z,99.99
2022-09-12T01:22:34.627Z,99.99
2022-09-12T01:27:53.913Z,99.99
2022-09-12T01:32:10.634Z,99.47
2022-09-12T01:36:43.225Z,99.99
2022-09-12T01:45:16.306Z,99.99
2022-09-12T01:49:49.983Z,99.99
2022-09-12T01:58:23.056Z,99.99
2022-09-12T02:00:27.933Z,99.99
2022-09-12T02:05:47.023Z,99.99
2022-09-12T02:11:06.002Z,99.99
2022-09-12T02:16:25.089Z,99.99
2022-09-12T02:21:43.894Z,99.99
2022-09-12T02:30:16.957Z,99.99
2022-09-12T02:34:33.510Z,99.99
2022-09-12T02:38:50.036Z,99.99
2022-09-12T02:43:02.534Z,99.99
2022-09-12T02:48:21.534Z,99.99
2022-09-12T02:53:40.685Z,99.99
2022-09-12T02:59:00.031Z,99.99
2022-09-12T03:04:18.913Z,99.99
2022-09-12T03:09:38.201Z,99.99
2022-09-12T03:14:57.425Z,99.99
2022-09-12T03:20:16.428Z,99.99
2022-09-12T03:25:35.672Z,99.99
2022-09-12T03:34:08.766Z,99.99
2022-09-12T03:38:25.283Z,99.99
2022-09-12T03:42:41.799Z,99.99
2022-09-12T03:46:52.312Z,99.99
2022-09-12T03:52:11.904Z,99.99
2022-09-12T03:57:31.186Z,99.99
2022-09-12T04:02:50.396Z,99.99
2022-09-12T04:08:09.695Z,99.99
2022-09-12T04:13:29.269Z,99.99
2022-09-12T04:22:02.330Z,99.99
2022-09-12T04:29:26.725Z,99.99
2022-09-12T04:34:45.832Z,99.99
2022-09-12T04:40:04.791Z,99.99
2022-09-12T04:45:24.302Z,99.99
2022-09-12T04:50:44.026Z,99.99
2022-09-12T04:56:03.007Z,99.99
2022-09-12T05:01:22.066Z,99.99
2022-09-12T05:06:41.542Z,99.99
2022-09-12T05:15:14.619Z,99.99
2022-09-12T05:19:31.155Z,99.99
2022-09-12T05:23:47.690Z,99.99
2022-09-12T05:33:17.625Z,99.99
2022-09-12T05:38:36.955Z,99.99
2022-09-12T05:44:07.162Z,99.99
2022-09-12T05:49:15.812Z,99.99
2022-09-12T05:54:35.047Z,99.99
2022-09-12T05:59:54.592Z,99.99
2022-09-12T06:05:14.794Z,99.99
2022-09-12T06:10:33.754Z,99.99
2022-09-12T06:15:53.026Z,99.99
2022-09-12T06:21:12.643Z,99.99
2022-09-12T06:26:32.017Z,99.99
2022-09-12T06:31:50.978Z,99.99
2022-09-12T06:37:10.418Z,99.99
2022-09-12T06:42:39.752Z,99.99
2022-09-12T06:47:48.791Z,99.99
2022-09-12T06:53:07.619Z,99.99
2022-09-12T06:58:27.089Z,99.99
2022-09-12T07:03:45.916Z,99.99
2022-09-12T07:09:04.749Z,99.99
2022-09-12T07:14:23.775Z,99.99
2022-09-12T07:19:43.210Z,99.99
2022-09-12T07:25:02.032Z,99.99
2022-09-12T07:30:20.721Z,99.99
2022-09-12T07:35:40.462Z,99.99
2022-09-12T07:40:59.309Z,99.99
2022-09-12T07:46:18.612Z,99.99
2022-09-12T07:51:37.753Z,99.99
2022-09-12T08:00:10.827Z,99.99
2022-09-12T08:04:27.353Z,99.99
2022-09-12T08:08:43.887Z,99.99
2022-09-12T08:13:00.393Z,99.99
2022-09-12T08:18:13.943Z,99.99
2022-09-12T08:23:32.993Z,99.99
2022-09-12T08:32:06.039Z,99.99
2022-09-12T08:34:11.421Z,99.99
2022-09-12T08:44:49.315Z,87.55
2022-09-12T08:53:22.370Z,82.78
2022-09-12T09:01:55.507Z,79.51
2022-09-12T09:11:25.113Z,74.49
2022-09-12T09:16:44.661Z,74.12
2022-09-12T09:22:04.198Z,72.07
2022-09-12T09:27:39.723Z,70.75
2022-09-12T09:35:56.026Z,69.06
2022-09-12T09:43:19.542Z,67.8
2022-09-12T09:48:39.102Z,64.93
2022-09-12T09:53:58.068Z,65.33
2022-09-12T09:59:16.992Z,63.73
2022-09-12T10:07:50.026Z,63.52
2022-09-12T10:20:32.687Z,58.76
2022-09-12T10:25:51.842Z,57.18
2022-09-12T10:34:24.852Z,59.04
2022-09-12T10:38:41.391Z,56.66
2022-09-12T10:41:49.517Z,55.42
2022-09-12T10:52:27.731Z,55.85
2022-09-12T10:57:46.806Z,56.25
2022-09-12T11:03:05.881Z,56.4
2022-09-12T11:08:25.232Z,55.01
2022-09-12T11:13:44.293Z,55.39
2022-09-12T11:19:03.837Z,54.88
2022-09-12T11:24:22.722Z,55.29
2022-09-12T11:29:41.830Z,52.74
2022-09-12T11:35:00.802Z,52.18
2022-09-12T11:40:19.477Z,53.94
2022-09-12T11:45:38.929Z,53.19
2022-09-12T11:54:11.936Z,52.57
2022-09-12T11:58:28.461Z,53.39
2022-09-12T12:02:45.124Z,52.17
2022-09-12T12:06:56.265Z,50.21
2022-09-12T12:12:15.778Z,47.7
2022-09-12T12:17:34.819Z,48.47
2022-09-12T12:22:54.071Z,48.42
2022-09-12T12:28:12.879Z,47.81
2022-09-12T12:33:32.471Z,44.99
2022-09-12T12:42:05.541Z,45.88
2022-09-12T12:49:29.840Z,44.22
2022-09-12T12:54:48.500Z,43.33
2022-09-12T13:00:08.036Z,43.14
2022-09-12T13:05:26.712Z,44.47
2022-09-12T13:10:48.449Z,44.84
2022-09-12T13:16:05.315Z,45.52
2022-09-12T13:24:38.336Z,44.2
2022-09-12T13:32:03.175Z,45.16
2022-09-12T13:37:22.442Z,45.23
2022-09-12T13:42:42.030Z,45.78
2022-09-12T13:53:20.710Z,47.08
2022-09-12T13:58:39.560Z,44.47
2022-09-12T14:03:59.029Z,44.92
2022-09-12T14:09:19.005Z,44.32
2022-09-12T14:14:36.446Z,45.32
2022-09-12T14:19:55.942Z,43.44
2022-09-12T14:25:15.661Z,44.94
2022-09-12T14:30:34.592Z,44.23
2022-09-12T14:35:53.370Z,43.76
2022-09-12T14:41:12.504Z,41.43
2022-09-12T14:46:44.011Z,42.66
2022-09-12T14:51:51.703Z,42.84
2022-09-12T14:57:10.904Z,42.65
2022-09-12T15:05:43.956Z,41.58
2022-09-12T15:13:09.004Z,41.84
2022-09-12T15:18:28.405Z,41.93
2022-09-12T15:23:48.034Z,42.19
2022-09-12T15:29:06.910Z,42.82
2022-09-12T15:34:25.891Z,42.73
2022-09-12T15:39:45.067Z,42.63
2022-09-12T15:45:04.197Z,43.9
2022-09-12T15:50:23.066Z,44.2
2022-09-12T15:55:42.288Z,43.72
2022-09-12T16:01:01.352Z,44.56
2022-09-12T16:06:20.359Z,44.87
2022-09-12T16:11:39.147Z,44.71
2022-09-12T16:16:58.376Z,45.62
2022-09-12T16:22:17.530Z,45.77
2022-09-12T16:27:36.903Z,46.02
2022-09-12T16:32:56.532Z,45.96
2022-09-12T16:38:15.496Z,46.41
2022-09-12T16:43:34.906Z,47.12
2022-09-12T16:48:54.622Z,48.67
2022-09-12T16:54:13.086Z,49.36
2022-09-12T16:59:32.602Z,50.09
2022-09-12T17:04:51.987Z,51.05
2022-09-12T17:10:11.504Z,51.72
2022-09-12T17:15:30.926Z,52.76
2022-09-12T17:20:50.199Z,54.11
2022-09-12T17:29:23.260Z,55.26
2022-09-12T17:36:47.495Z,57.93
2022-09-12T17:42:06.886Z,58.34
2022-09-12T17:47:25.666Z,58.82
2022-09-12T17:52:45.296Z,59.92
2022-09-12T17:58:04.652Z,61.64
2022-09-12T18:03:23.655Z,63.37
2022-09-12T18:08:42.589Z,64.21
2022-09-12T18:14:01.831Z,64.87
2022-09-12T18:19:21.203Z,66.44
2022-09-12T18:24:40.716Z,67.83
2022-09-12T18:30:19.864Z,68.8
2022-09-12T18:35:18.325Z,70.26
2022-09-12T18:40:37.083Z,71.08
2022-09-12T18:45:56.183Z,71.28
2022-09-12T18:51:15.653Z,72.56
2022-09-12T18:56:35.321Z,72.69
2022-09-12T19:01:54.281Z,73.47
2022-09-12T19:07:12.979Z,74.58
2022-09-12T19:17:51.446Z,76.35
2022-09-12T19:23:10.199Z,76.94
2022-09-12T19:28:29.567Z,77.91
2022-09-12T19:33:48.526Z,78.72
2022-09-12T19:39:08.122Z,79.03
2022-09-12T19:44:27.851Z,79.62
2022-09-12T19:49:46.930Z,80.43
2022-09-12T19:58:20.896Z,81.64
2022-09-12T19:58:51.001Z,82.25
2022-09-12T20:04:06.968Z,82.6
2022-09-12T20:09:26.253Z,83.91
2022-09-12T20:14:45.567Z,84.59
2022-09-12T20:20:04.621Z,84.87
2022-09-12T20:25:24.018Z,84.8
2022-09-12T20:30:43.270Z,85.13
2022-09-12T20:36:02.487Z,86.11
2022-09-12T20:41:21.345Z,86.29
2022-09-12T20:46:40.471Z,86.56
2022-09-12T20:52:00.068Z,87.38
2022-09-12T20:57:19.399Z,88.15
2022-09-12T21:02:38.954Z,88.83
2022-09-12T21:07:58.234Z,89.52
2022-09-12T21:13:17.044Z,89.61
2022-09-12T21:18:36.755Z,89.91
2022-09-12T21:23:55.857Z,90.4
2022-09-12T21:29:14.771Z,90.55
2022-09-12T21:34:33.898Z,91.36
2022-09-12T21:39:53.133Z,91.7
2022-09-12T21:45:11.861Z,92.17
2022-09-12T21:50:31.292Z,92.73
2022-09-12T21:59:04.331Z,93.67
2022-09-12T22:03:20.853Z,93.55
2022-09-12T22:07:37.395Z,93.58
2022-09-12T22:11:47.208Z,93.88
2022-09-12T22:17:06.126Z,94.52
2022-09-12T22:22:25.516Z,94.82
2022-09-12T22:27:45.285Z,95.2
2022-09-12T22:33:04.371Z,95.35
2022-09-12T22:38:24.011Z,95.4
2022-09-12T22:43:43.438Z,95.58
2022-09-12T22:49:02.601Z,95.86
2022-09-12T22:54:22.175Z,96.23
2022-09-12T23:02:55.310Z,96.47
2022-09-12T23:11:28.291Z,97.01
2022-09-12T23:15:44.861Z,97.28
2022-09-12T23:20:57.122Z,97.32
2022-09-12T23:26:16.321Z,97.37
2022-09-12T23:31:36.112Z,97.68
2022-09-12T23:40:09.167Z,97.61
2022-09-12T23:42:14.245Z,97.65
2022-09-12T23:47:33.126Z,97.69
2022-09-12T23:52:52.598Z,97.72
2022-09-12T23:58:11.556Z,97.91
